createdAt,value
2023-01-01T00:01:40.531Z,100.00
2023-01-01T00:06:32.746Z,100.00
2023-01-01T00:11:24.535Z,100.00
2023-01-01T00:16:16.316Z,100.00
2023-01-01T00:21:12.458Z,100.00
2023-01-01T00:26:11.814Z,100.00
2023-01-01T00:31:11.567Z,100.00
2023-01-01T00:36:14.149Z,100.00
2023-01-01T00:41:06.044Z,100.00
2023-01-01T00:45:57.824Z,100.00
2023-01-01T00:50:50.746Z,100.00
2023-01-01T00:55:44.293Z,100.00
2023-01-01T01:00:36.852Z,100.00
2023-01-01T01:05:28.587Z,100.00
2023-01-01T01:10:22.285Z,100.00
2023-01-01T01:15:15.293Z,100.00
2023-01-01T01:20:07.985Z,100.00
2023-01-01T01:24:59.670Z,100.00
2023-01-01T01:29:51.551Z,100.00
2023-01-01T01:34:43.163Z,100.00
2023-01-01T01:39:34.997Z,100.00
2023-01-01T01:44:48.541Z,100.00
2023-01-01T01:49:40.345Z,100.00
2023-01-01T01:54:32.269Z,100.00
2023-01-01T01:59:27.528Z,100.00
2023-01-01T02:04:19.886Z,100.00
2023-01-01T02:09:11.738Z,100.00
2023-01-01T02:14:04.160Z,100.00
2023-01-01T02:19:06.066Z,100.00
2023-01-01T02:24:21.342Z,98.91
2023-01-01T02:29:30.903Z,99.55
2023-01-01T02:34:27.221Z,99.31
2023-01-01T02:39:22.832Z,99.10
2023-01-01T02:44:15.507Z,99.44
2023-01-01T02:49:10.595Z,99.50
2023-01-01T02:54:20.640Z,100.00
2023-01-01T02:59:43.250Z,100.00
2023-01-01T03:04:40.444Z,100.00
2023-01-01T03:09:44.665Z,100.00
2023-01-01T03:14:54.013Z,100.00
2023-01-01T03:19:48.720Z,100.00
2023-01-01T03:24:59.394Z,100.00
2023-01-01T03:29:56.729Z,100.00
2023-01-01T03:34:57.433Z,99.96
2023-01-01T03:39:53.081Z,100.00
2023-01-01T03:44:54.348Z,100.00
2023-01-01T03:49:46.891Z,100.00
2023-01-01T03:55:15.273Z,100.00
2023-01-01T04:00:09.637Z,100.00
2023-01-01T04:05:05.095Z,100.00
2023-01-01T04:10:00.620Z,100.00
2023-01-01T04:14:52.424Z,100.00
2023-01-01T04:19:44.900Z,100.00
2023-01-01T04:24:39.260Z,100.00
2023-01-01T04:29:31.011Z,100.00
2023-01-01T04:34:22.820Z,100.00
2023-01-01T04:39:14.422Z,100.00
2023-01-01T04:44:06.150Z,100.00
2023-01-01T04:48:58.065Z,100.00
2023-01-01T04:53:49.650Z,100.00
2023-01-01T04:58:42.739Z,100.00
2023-01-01T05:03:37.940Z,100.00
2023-01-01T05:08:34.233Z,100.00
2023-01-01T05:13:25.940Z,99.47
2023-01-01T05:18:17.515Z,99.90
2023-01-01T05:23:09.105Z,100.00
2023-01-01T05:28:00.850Z,100.00
2023-01-01T05:32:52.532Z,100.00
2023-01-01T05:37:44.225Z,100.00
2023-01-01T05:42:36.215Z,100.00
2023-01-01T05:47:30.062Z,100.00
2023-01-01T05:52:26.465Z,100.00
2023-01-01T05:57:18.654Z,100.00
2023-01-01T06:02:10.396Z,100.00
2023-01-01T06:07:02.223Z,100.00
2023-01-01T06:11:53.885Z,100.00
2023-01-01T06:16:45.581Z,100.00
2023-01-01T06:21:37.286Z,100.00
2023-01-01T06:26:31.732Z,100.00
2023-01-01T06:31:24.586Z,100.00
2023-01-01T06:36:17.715Z,100.00
2023-01-01T06:41:23.658Z,100.00
2023-01-01T06:46:33.873Z,100.00
2023-01-01T06:51:28.262Z,100.00
2023-01-01T06:56:20.714Z,100.00
2023-01-01T07:01:15.468Z,100.00
2023-01-01T07:06:08.459Z,100.00
2023-01-01T07:11:00.624Z,100.00
2023-01-01T07:15:53.472Z,100.00
2023-01-01T07:20:49.815Z,100.00
2023-01-01T07:25:42.397Z,100.00
2023-01-01T07:30:34.130Z,100.00
2023-01-01T07:35:25.950Z,100.00
2023-01-01T07:40:17.593Z,100.00
2023-01-01T07:45:12.486Z,99.88
2023-01-01T07:50:04.590Z,99.10
2023-01-01T07:54:56.303Z,99.62
2023-01-01T07:59:47.929Z,99.43
2023-01-01T08:04:39.916Z,100.00
2023-01-01T08:09:31.655Z,99.72
2023-01-01T08:14:23.372Z,100.00
2023-01-01T08:19:15.018Z,100.00
2023-01-01T08:24:06.959Z,100.00
2023-01-01T08:28:59.184Z,100.00
2023-01-01T08:33:50.825Z,100.00
2023-01-01T08:38:43.706Z,100.00
2023-01-01T08:43:35.351Z,100.00
2023-01-01T08:48:30.704Z,100.00
2023-01-01T08:53:23.121Z,100.00
2023-01-01T08:58:14.781Z,100.00
2023-01-01T09:03:06.784Z,100.00
2023-01-01T09:07:58.562Z,100.00
2023-01-01T09:12:50.244Z,100.00
2023-01-01T09:17:41.874Z,100.00
2023-01-01T09:22:34.179Z,100.00
2023-01-01T09:27:25.863Z,100.00
2023-01-01T09:32:18.794Z,99.39
2023-01-01T09:37:10.462Z,99.53
2023-01-01T09:42:26.525Z,99.72
2023-01-01T09:47:23.324Z,100.00
2023-01-01T09:52:16.787Z,99.99
2023-01-01T09:57:19.601Z,100.00
2023-01-01T10:02:41.419Z,100.00
2023-01-01T10:08:00.382Z,100.00
2023-01-01T10:13:06.455Z,100.00
2023-01-01T10:18:00.607Z,100.00
2023-01-01T10:23:14.905Z,100.00
2023-01-01T10:28:23.806Z,100.00
2023-01-01T10:33:15.509Z,100.00
2023-01-01T10:38:07.750Z,100.00
2023-01-01T10:43:01.518Z,100.00
2023-01-01T10:48:25.986Z,100.00
2023-01-01T10:53:35.609Z,100.00
2023-01-01T10:58:35.238Z,100.00
2023-01-01T11:03:27.048Z,100.00
2023-01-01T11:08:19.387Z,100.00
2023-01-01T11:13:20.078Z,99.98
2023-01-01T11:18:20.737Z,97.58
2023-01-01T11:23:39.336Z,97.00
2023-01-01T11:28:34.426Z,96.22
2023-01-01T11:33:27.584Z,96.70
2023-01-01T11:38:24.435Z,96.60
2023-01-01T11:43:22.634Z,96.38
2023-01-01T11:48:28.238Z,96.64
2023-01-01T11:53:22.920Z,95.71
2023-01-01T11:58:38.792Z,95.59
2023-01-01T12:03:55.555Z,94.81
2023-01-01T12:08:50.902Z,94.67
2023-01-01T12:13:52.413Z,95.12
2023-01-01T12:18:56.136Z,95.54
2023-01-01T12:23:47.804Z,96.16
2023-01-01T12:28:57.874Z,96.19
2023-01-01T12:34:13.259Z,96.62
2023-01-01T12:39:45.547Z,96.67
2023-01-01T12:44:55.492Z,96.16
2023-01-01T12:50:10.606Z,95.75
2023-01-01T12:55:20.829Z,95.25
2023-01-01T13:00:18.118Z,94.77
2023-01-01T13:05:43.286Z,92.30
2023-01-01T13:10:39.219Z,91.00
2023-01-01T13:15:44.173Z,90.35
2023-01-01T13:20:41.064Z,90.87
2023-01-01T13:25:32.762Z,90.70
2023-01-01T13:30:36.434Z,89.84
2023-01-01T13:35:28.256Z,91.01
2023-01-01T13:40:30.240Z,91.55
2023-01-01T13:50:59.403Z,90.99
2023-01-01T13:56:15.577Z,91.35
2023-01-01T14:01:13.018Z,87.47
2023-01-01T14:06:14.583Z,87.34
2023-01-01T14:11:24.850Z,85.76
2023-01-01T14:16:16.846Z,84.29
2023-01-01T14:21:15.561Z,82.85
2023-01-01T14:26:12.570Z,82.87
2023-01-01T14:31:22.517Z,82.59
2023-01-01T14:36:22.232Z,83.60
2023-01-01T14:41:40.830Z,83.30
2023-01-01T14:46:33.292Z,84.11
2023-01-01T14:51:26.937Z,84.68
2023-01-01T14:56:26.178Z,86.03
2023-01-01T15:01:24.001Z,87.11
2023-01-01T15:06:18.058Z,86.74
2023-01-01T15:11:09.793Z,87.63
2023-01-01T15:16:20.171Z,88.58
2023-01-01T15:21:30.796Z,88.80
2023-01-01T15:26:29.250Z,89.55
2023-01-01T15:31:21.026Z,90.22
2023-01-01T15:36:12.664Z,91.84
2023-01-01T15:41:45.090Z,93.05
2023-01-01T15:46:36.865Z,93.74
2023-01-01T15:51:29.713Z,94.07
2023-01-01T15:56:25.983Z,94.00
2023-01-01T16:01:27.819Z,94.77
2023-01-01T16:06:21.792Z,95.01
2023-01-01T16:11:14.543Z,95.63
2023-01-01T16:16:22.519Z,96.21
2023-01-01T16:21:14.215Z,96.38
2023-01-01T16:26:05.813Z,97.04
2023-01-01T16:30:58.125Z,97.64
2023-01-01T16:35:50.025Z,97.48
2023-01-01T16:40:41.737Z,97.86
2023-01-01T16:45:33.479Z,98.09
2023-01-01T16:50:25.258Z,98.38
2023-01-01T16:55:17.011Z,99.25
2023-01-01T17:00:09.469Z,99.93
2023-01-01T17:05:01.153Z,100.00
2023-01-01T17:09:52.830Z,100.00
2023-01-01T17:14:44.585Z,100.00
2023-01-01T17:19:36.299Z,100.00
2023-01-01T17:24:27.998Z,100.00
2023-01-01T17:29:23.642Z,100.00
2023-01-01T17:34:15.540Z,100.00
2023-01-01T17:39:07.221Z,100.00
2023-01-01T17:43:59.373Z,100.00
2023-01-01T17:48:51.689Z,100.00
2023-01-01T17:53:43.693Z,100.00
2023-01-01T17:58:35.902Z,100.00
2023-01-01T18:03:27.768Z,100.00
2023-01-01T18:08:19.459Z,100.00
2023-01-01T18:13:11.279Z,100.00
2023-01-01T18:18:02.985Z,100.00
2023-01-01T18:22:59.539Z,100.00
2023-01-01T18:27:57.175Z,100.00
2023-01-01T18:32:49.429Z,100.00
2023-01-01T18:37:41.175Z,99.45
2023-01-01T18:42:49.040Z,99.88
2023-01-01T18:47:40.677Z,99.41
2023-01-01T18:52:34.222Z,99.80
2023-01-01T18:57:29.465Z,100.00
2023-01-01T19:02:29.040Z,100.00
2023-01-01T19:07:20.719Z,100.00
2023-01-01T19:12:17.801Z,99.80
2023-01-01T19:17:21.495Z,99.95
2023-01-01T19:22:24.481Z,100.00
2023-01-01T19:27:17.921Z,100.00
2023-01-01T19:32:09.681Z,100.00
2023-01-01T19:37:02.161Z,100.00
2023-01-01T19:41:53.908Z,100.00
2023-01-01T19:46:45.768Z,100.00
2023-01-01T19:51:37.500Z,100.00
2023-01-01T19:56:29.144Z,100.00
2023-01-01T20:01:20.898Z,100.00
2023-01-01T20:06:12.696Z,100.00
2023-01-01T20:11:05.801Z,100.00
2023-01-01T20:15:58.256Z,100.00
2023-01-01T20:21:08.379Z,100.00
2023-01-01T20:26:00.044Z,100.00
2023-01-01T20:30:51.759Z,100.00
2023-01-01T20:36:01.916Z,100.00
2023-01-01T20:40:53.705Z,100.00
2023-01-01T20:45:45.494Z,100.00
2023-01-01T20:50:37.338Z,100.00
2023-01-01T20:55:29.054Z,100.00
2023-01-01T21:00:20.807Z,100.00
2023-01-01T21:05:13.089Z,100.00
2023-01-01T21:10:05.248Z,100.00
2023-01-01T21:14:57.040Z,100.00
2023-01-01T21:19:50.894Z,100.00
2023-01-01T21:24:42.917Z,100.00
2023-01-01T21:29:35.508Z,100.00
2023-01-01T21:34:41.780Z,100.00
2023-01-01T21:39:33.459Z,100.00
2023-01-01T21:44:25.233Z,100.00
2023-01-01T21:49:27.958Z,100.00
2023-01-01T21:54:35.401Z,100.00
2023-01-01T21:59:42.000Z,100.00
2023-01-01T22:04:51.634Z,100.00
2023-01-01T22:09:48.431Z,100.00
2023-01-01T22:14:45.989Z,100.00
2023-01-01T22:19:38.552Z,100.00
2023-01-01T22:24:35.259Z,100.00
2023-01-01T22:29:27.233Z,100.00
2023-01-01T22:34:23.265Z,100.00
2023-01-01T22:39:35.508Z,100.00
2023-01-01T22:44:27.528Z,100.00
2023-01-01T22:49:30.414Z,100.00
2023-01-01T22:54:22.105Z,100.00
2023-01-01T22:59:13.960Z,100.00
2023-01-01T23:04:05.608Z,100.00
2023-01-01T23:08:57.522Z,100.00
2023-01-01T23:14:10.571Z,100.00
2023-01-01T23:19:02.525Z,100.00
2023-01-01T23:23:56.376Z,100.00
2023-01-01T23:28:48.337Z,100.00
2023-01-01T23:33:41.203Z,100.00
2023-01-01T23:38:33.523Z,100.00
2023-01-01T23:43:25.184Z,100.00
2023-01-01T23:48:17.517Z,100.00
2023-01-01T23:53:09.362Z,100.00
2023-01-01T23:58:01.031Z,100.00
